Silver Shadow — C6FN6 — position and weather

sailwx.info

Track history (hours):
 
Tides and Currents Weather Stations Pressure Air Temp Water Temp Dewpoint Dewpoint Depression Visibility Wind Speed Wind Dir Waves Ship Positions

Silver Shadow

Operator: V Ships Leisure SAM

Last reported at 2019-Nov-02 22:00 UTC. Time now 2019-Nov-11 22:29 UTC.
Position N 37°31' E 023°43'.
Warning: this ship's position is 9 days out of date.

Length 186 m; draft 6.1 m.

Type: Passenger vessel. MMSI: 308628000.

Date/timePositionNaut miles runAvg speedWind from/ knotsBaromVisibWave heightAir tempDewpointWater temp
2019-Nov-02 22:00N 37°31' E 023°43'815.5
2019-Nov-02 21:30N 37°38' E 023°42'1515.1
2019-Nov-02 20:31N 37°53' E 023°37'3 3.2
2019-Nov-02 19:29N 37°56' E 023°37'0 0.0
2019-Nov-02 18:59N 37°56' E 023°37'0 0.0
2019-Nov-02 18:29N 37°56' E 023°37'0 0.0
2019-Nov-02 17:59N 37°56' E 023°37'0 0.0
2019-Nov-02 17:29N 37°56' E 023°37'0 0.0
2019-Nov-02 09:59N 37°56' E 023°37'0 0.0
2019-Nov-02 08:59N 37°56' E 023°37'0 0.0
2019-Nov-02 08:29N 37°56' E 023°37'0 0.0
2019-Nov-02 07:29N 37°56' E 023°37'0 0.0
2019-Nov-02 05:59N 37°56' E 023°37'0 0.0
2019-Nov-02 04:59N 37°56' E 023°37'0 0.0
2019-Nov-02 01:59N 37°56' E 023°37'0 0.0
2019-Nov-02 01:29N 37°56' E 023°37'0 0.0
2019-Nov-02 00:59N 37°56' E 023°37'0 0.0
2019-Nov-02 00:29N 37°56' E 023°37'0 0.0
2019-Nov-01 23:59N 37°56' E 023°37'0 0.0
2019-Nov-01 23:29N 37°56' E 023°37'0 0.0
2019-Nov-01 22:59N 37°56' E 023°37'0 0.0
2019-Nov-01 22:29N 37°56' E 023°37'0 0.0
2019-Nov-01 21:59N 37°56' E 023°37'0 0.0
2019-Nov-01 21:29N 37°56' E 023°37'0 0.0
2019-Nov-01 20:59N 37°56' E 023°37'0 0.0
2019-Nov-01 20:29N 37°56' E 023°37'0 0.0
2019-Nov-01 19:59N 37°56' E 023°37'0 0.0
2019-Nov-01 19:29N 37°56' E 023°37'0 0.0
2019-Nov-01 18:59N 37°56' E 023°37'0 0.0
2019-Nov-01 18:29N 37°56' E 023°37'0 0.0
2019-Nov-01 17:59N 37°56' E 023°37'0 0.0
2019-Nov-01 17:29N 37°56' E 023°37'0 0.0
2019-Nov-01 16:59N 37°56' E 023°37'0 0.0
2019-Nov-01 16:29N 37°56' E 023°37'0 0.0
2019-Nov-01 15:59N 37°56' E 023°37'0 0.0
2019-Nov-01 15:29N 37°56' E 023°37'0 0.0
2019-Nov-01 14:59N 37°56' E 023°37'0 0.0
2019-Nov-01 14:29N 37°56' E 023°37'0 0.0
2019-Nov-01 13:59N 37°56' E 023°37'0 0.0
2019-Nov-01 13:29N 37°56' E 023°37'0 0.0
2019-Nov-01 12:59N 37°56' E 023°37'0 0.0
2019-Nov-01 12:29N 37°56' E 023°37'0 0.0
2019-Nov-01 11:59N 37°56' E 023°37'0 0.0
2019-Nov-01 11:31N 37°56' E 023°37'1 2.0
2019-Nov-01 11:00N 37°55' E 023°37'611.7
2019-Nov-01 10:31N 37°50' E 023°40'714.8
2019-Nov-01 10:01N 37°43' E 023°44'714.5
2019-Nov-01 09:31N 37°36' E 023°47'814.7
2019-Nov-01 09:00N 37°29' E 023°51'  
2019-Oct-28 23:57N 32°18' E 034°38'12 8.0
2019-Oct-28 22:31N 32°30' E 034°42'4 8.2
2019-Oct-28 22:00N 32°34' E 034°43'4 8.1
2019-Oct-28 21:29N 32°38' E 034°45'4 8.1
2019-Oct-28 20:56N 32°42' E 034°46'5 7.9
2019-Oct-28 20:18N 32°47' E 034°48'126 4.9
2019-Oct-27 18:26N 34°27' E 033°16'613.0
2019-Oct-27 18:01N 34°31' E 033°12'713.3
2019-Oct-27 17:31N 34°36' E 033°06'5 9.8
2019-Oct-27 17:00N 34°39' E 033°01'0 0.5
2019-Oct-27 16:30N 34°39' E 033°01'0 0.0
2019-Oct-27 16:00N 34°39' E 033°01'0 0.0
2019-Oct-27 15:30N 34°39' E 033°01'0 0.0
2019-Oct-27 15:00N 34°39' E 033°01'0 0.0
2019-Oct-27 14:30N 34°39' E 033°01'0 0.0
2019-Oct-27 14:00N 34°39' E 033°01'0 0.0
2019-Oct-27 13:29N 34°39' E 033°01'0 0.0
2019-Oct-27 13:00N 34°39' E 033°01'0 0.0
2019-Oct-27 12:30N 34°39' E 033°01'0 0.0
2019-Oct-27 11:59N 34°39' E 033°01'0 0.0
2019-Oct-27 11:30N 34°39' E 033°01'0 0.0
2019-Oct-27 11:00N 34°39' E 033°01'0 0.0
2019-Oct-27 10:30N 34°39' E 033°01'0 0.0
2019-Oct-27 10:00N 34°39' E 033°01'0 0.0
2019-Oct-27 09:30N 34°39' E 033°01'0 0.0
2019-Oct-27 09:00N 34°39' E 033°01'0 0.0
2019-Oct-27 08:30N 34°39' E 033°01'0 0.0
2019-Oct-27 08:00N 34°39' E 033°01'0 0.0
2019-Oct-27 07:30N 34°39' E 033°01'1 2.7
2019-Oct-27 07:00N 34°39' E 033°03'5 9.3
2019-Oct-27 06:30N 34°35' E 033°06'612.1
2019-Oct-27 06:00N 34°30' E 033°03'611.3
2019-Oct-27 05:30N 34°28' E 032°56'914.7
2019-Oct-27 04:53N 34°30' E 032°46'  
Track history (hours):
 
Tides and Currents Weather Stations Pressure Air Temp Water Temp Dewpoint Dewpoint Depression Visibility Wind Speed Wind Dir Waves Ship Positions

Silver Shadow

Operator: V Ships Leisure SAM

Last reported at 2019-Nov-02 22:00 UTC. Time now 2019-Nov-11 22:29 UTC.
Position N 37°31' E 023°43'.
Warning: this ship's position is 9 days out of date.

Length 186 m; draft 6.1 m.

Type: Passenger vessel. MMSI: 308628000.

Date/timePositionNaut miles runAvg speedWind from/ knotsBaromVisibWave heightAir tempDewpointWater temp
2019-Nov-02 22:00N 37°31' E 023°43'815.5
2019-Nov-02 21:30N 37°38' E 023°42'1515.1
2019-Nov-02 20:31N 37°53' E 023°37'3 3.2
2019-Nov-02 19:29N 37°56' E 023°37'0 0.0
2019-Nov-02 18:59N 37°56' E 023°37'0 0.0
2019-Nov-02 18:29N 37°56' E 023°37'0 0.0
2019-Nov-02 17:59N 37°56' E 023°37'0 0.0
2019-Nov-02 17:29N 37°56' E 023°37'0 0.0
2019-Nov-02 09:59N 37°56' E 023°37'0 0.0
2019-Nov-02 08:59N 37°56' E 023°37'0 0.0
2019-Nov-02 08:29N 37°56' E 023°37'0 0.0
2019-Nov-02 07:29N 37°56' E 023°37'0 0.0
2019-Nov-02 05:59N 37°56' E 023°37'0 0.0
2019-Nov-02 04:59N 37°56' E 023°37'0 0.0
2019-Nov-02 01:59N 37°56' E 023°37'0 0.0
2019-Nov-02 01:29N 37°56' E 023°37'0 0.0
2019-Nov-02 00:59N 37°56' E 023°37'0 0.0
2019-Nov-02 00:29N 37°56' E 023°37'0 0.0
2019-Nov-01 23:59N 37°56' E 023°37'0 0.0
2019-Nov-01 23:29N 37°56' E 023°37'0 0.0
2019-Nov-01 22:59N 37°56' E 023°37'0 0.0
2019-Nov-01 22:29N 37°56' E 023°37'0 0.0
2019-Nov-01 21:59N 37°56' E 023°37'0 0.0
2019-Nov-01 21:29N 37°56' E 023°37'0 0.0
2019-Nov-01 20:59N 37°56' E 023°37'0 0.0
2019-Nov-01 20:29N 37°56' E 023°37'0 0.0
2019-Nov-01 19:59N 37°56' E 023°37'0 0.0
2019-Nov-01 19:29N 37°56' E 023°37'0 0.0
2019-Nov-01 18:59N 37°56' E 023°37'0 0.0
2019-Nov-01 18:29N 37°56' E 023°37'0 0.0
2019-Nov-01 17:59N 37°56' E 023°37'0 0.0
2019-Nov-01 17:29N 37°56' E 023°37'0 0.0
2019-Nov-01 16:59N 37°56' E 023°37'0 0.0
2019-Nov-01 16:29N 37°56' E 023°37'0 0.0
2019-Nov-01 15:59N 37°56' E 023°37'0 0.0
2019-Nov-01 15:29N 37°56' E 023°37'0 0.0
2019-Nov-01 14:59N 37°56' E 023°37'0 0.0
2019-Nov-01 14:29N 37°56' E 023°37'0 0.0
2019-Nov-01 13:59N 37°56' E 023°37'0 0.0
2019-Nov-01 13:29N 37°56' E 023°37'0 0.0
2019-Nov-01 12:59N 37°56' E 023°37'0 0.0
2019-Nov-01 12:29N 37°56' E 023°37'0 0.0
2019-Nov-01 11:59N 37°56' E 023°37'0 0.0
2019-Nov-01 11:31N 37°56' E 023°37'1 2.0
2019-Nov-01 11:00N 37°55' E 023°37'611.7
2019-Nov-01 10:31N 37°50' E 023°40'714.8
2019-Nov-01 10:01N 37°43' E 023°44'714.5
2019-Nov-01 09:31N 37°36' E 023°47'814.7
2019-Nov-01 09:00N 37°29' E 023°51'  
2019-Oct-28 23:57N 32°18' E 034°38'12 8.0
2019-Oct-28 22:31N 32°30' E 034°42'4 8.2
2019-Oct-28 22:00N 32°34' E 034°43'4 8.1
2019-Oct-28 21:29N 32°38' E 034°45'4 8.1
2019-Oct-28 20:56N 32°42' E 034°46'5 7.9
2019-Oct-28 20:18N 32°47' E 034°48'126 4.9
2019-Oct-27 18:26N 34°27' E 033°16'613.0
2019-Oct-27 18:01N 34°31' E 033°12'713.3
2019-Oct-27 17:31N 34°36' E 033°06'5 9.8
2019-Oct-27 17:00N 34°39' E 033°01'0 0.5
2019-Oct-27 16:30N 34°39' E 033°01'0 0.0
2019-Oct-27 16:00N 34°39' E 033°01'0 0.0
2019-Oct-27 15:30N 34°39' E 033°01'0 0.0
2019-Oct-27 15:00N 34°39' E 033°01'0 0.0
2019-Oct-27 14:30N 34°39' E 033°01'0 0.0
2019-Oct-27 14:00N 34°39' E 033°01'0 0.0
2019-Oct-27 13:29N 34°39' E 033°01'0 0.0
2019-Oct-27 13:00N 34°39' E 033°01'0 0.0
2019-Oct-27 12:30N 34°39' E 033°01'0 0.0
2019-Oct-27 11:59N 34°39' E 033°01'0 0.0
2019-Oct-27 11:30N 34°39' E 033°01'0 0.0
2019-Oct-27 11:00N 34°39' E 033°01'0 0.0
2019-Oct-27 10:30N 34°39' E 033°01'0 0.0
2019-Oct-27 10:00N 34°39' E 033°01'0 0.0
2019-Oct-27 09:30N 34°39' E 033°01'0 0.0
2019-Oct-27 09:00N 34°39' E 033°01'0 0.0
2019-Oct-27 08:30N 34°39' E 033°01'0 0.0
2019-Oct-27 08:00N 34°39' E 033°01'0 0.0
2019-Oct-27 07:30N 34°39' E 033°01'1 2.7
2019-Oct-27 07:00N 34°39' E 033°03'5 9.3
2019-Oct-27 06:30N 34°35' E 033°06'612.1
2019-Oct-27 06:00N 34°30' E 033°03'611.3
2019-Oct-27 05:30N 34°28' E 032°56'914.7
2019-Oct-27 04:53N 34°30' E 032°46'  

Dump ship's entire track history